sensor_id;sensor_type;location;lat;lon;timestamp;P1;durP1;ratioP1;P2;durP2;ratioP2
63653;SDS011;49809;47.418;19.080;2024-01-06T00:02:18;30.15;;;14.13;;
63653;SDS011;49809;47.418;19.080;2024-01-06T00:05:24;26.98;;;13.25;;
63653;SDS011;49809;47.418;19.080;2024-01-06T00:08:27;26.08;;;13.62;;
63653;SDS011;49809;47.418;19.080;2024-01-06T00:11:33;23.30;;;12.40;;
63653;SDS011;49809;47.418;19.080;2024-01-06T00:14:41;31.00;;;13.45;;
63653;SDS011;49809;47.418;19.080;2024-01-06T00:17:48;27.10;;;13.30;;
63653;SDS011;49809;47.418;19.080;2024-01-06T00:20:51;25.60;;;12.80;;
63653;SDS011;49809;47.418;19.080;2024-01-06T00:23:55;24.75;;;12.93;;
63653;SDS011;49809;47.418;19.080;2024-01-06T00:26:59;23.85;;;12.43;;
63653;SDS011;49809;47.418;19.080;2024-01-06T00:30:03;25.92;;;12.88;;
63653;SDS011;49809;47.418;19.080;2024-01-06T00:33:10;23.35;;;12.15;;
63653;SDS011;49809;47.418;19.080;2024-01-06T00:36:18;26.62;;;12.60;;
63653;SDS011;49809;47.418;19.080;2024-01-06T00:39:21;25.33;;;12.40;;
63653;SDS011;49809;47.418;19.080;2024-01-06T00:42:25;31.00;;;13.38;;
63653;SDS011;49809;47.418;19.080;2024-01-06T00:45:27;23.80;;;12.13;;
63653;SDS011;49809;47.418;19.080;2024-01-06T00:48:34;26.92;;;12.50;;
63653;SDS011;49809;47.418;19.080;2024-01-06T00:51:39;28.00;;;12.98;;
63653;SDS011;49809;47.418;19.080;2024-01-06T00:55:02;22.10;;;11.68;;
63653;SDS011;49809;47.418;19.080;2024-01-06T00:58:06;28.55;;;12.95;;
63653;SDS011;49809;47.418;19.080;2024-01-06T01:01:11;28.02;;;14.25;;
63653;SDS011;49809;47.418;19.080;2024-01-06T01:04:38;32.63;;;16.25;;
63653;SDS011;49809;47.418;19.080;2024-01-06T01:07:40;31.95;;;14.85;;
63653;SDS011;49809;47.418;19.080;2024-01-06T01:10:43;30.08;;;14.70;;
63653;SDS011;49809;47.418;19.080;2024-01-06T01:13:51;26.67;;;13.65;;
63653;SDS011;49809;47.418;19.080;2024-01-06T01:16:55;27.73;;;13.80;;
63653;SDS011;49809;47.418;19.080;2024-01-06T01:19:59;25.58;;;13.00;;
63653;SDS011;49809;47.418;19.080;2024-01-06T01:23:02;25.92;;;12.48;;
63653;SDS011;49809;47.418;19.080;2024-01-06T01:26:05;26.87;;;13.10;;
63653;SDS011;49809;47.418;19.080;2024-01-06T01:29:08;26.23;;;13.32;;
63653;SDS011;49809;47.418;19.080;2024-01-06T01:32:16;28.70;;;12.65;;
63653;SDS011;49809;47.418;19.080;2024-01-06T01:35:45;23.77;;;12.93;;
63653;SDS011;49809;47.418;19.080;2024-01-06T01:38:50;23.95;;;12.57;;
63653;SDS011;49809;47.418;19.080;2024-01-06T01:41:53;26.67;;;13.48;;
63653;SDS011;49809;47.418;19.080;2024-01-06T01:44:58;29.33;;;13.68;;
63653;SDS011;49809;47.418;19.080;2024-01-06T01:48:04;26.10;;;13.20;;
63653;SDS011;49809;47.418;19.080;2024-01-06T01:51:09;24.00;;;13.37;;
63653;SDS011;49809;47.418;19.080;2024-01-06T01:54:14;26.48;;;14.23;;
63653;SDS011;49809;47.418;19.080;2024-01-06T01:57:18;27.15;;;14.18;;
63653;SDS011;49809;47.418;19.080;2024-01-06T02:00:24;32.20;;;15.07;;
63653;SDS011;49809;47.418;19.080;2024-01-06T02:03:31;30.37;;;14.40;;
63653;SDS011;49809;47.418;19.080;2024-01-06T02:06:35;30.27;;;16.02;;
63653;SDS011;49809;47.418;19.080;2024-01-06T02:09:40;26.80;;;14.15;;
63653;SDS011;49809;47.418;19.080;2024-01-06T02:12:47;27.17;;;14.50;;
63653;SDS011;49809;47.418;19.080;2024-01-06T02:15:51;30.35;;;14.75;;
63653;SDS011;49809;47.418;19.080;2024-01-06T02:18:57;29.05;;;14.20;;
63653;SDS011;49809;47.418;19.080;2024-01-06T02:22:01;24.98;;;13.77;;
63653;SDS011;49809;47.418;19.080;2024-01-06T02:25:04;25.73;;;13.82;;
63653;SDS011;49809;47.418;19.080;2024-01-06T02:28:15;26.73;;;13.30;;
63653;SDS011;49809;47.418;19.080;2024-01-06T02:31:41;25.95;;;14.02;;
63653;SDS011;49809;47.418;19.080;2024-01-06T02:34:44;24.37;;;12.27;;
63653;SDS011;49809;47.418;19.080;2024-01-06T02:37:48;27.40;;;13.68;;
63653;SDS011;49809;47.418;19.080;2024-01-06T02:40:50;25.95;;;13.75;;
63653;SDS011;49809;47.418;19.080;2024-01-06T02:43:54;27.42;;;13.30;;
63653;SDS011;49809;47.418;19.080;2024-01-06T02:50:04;20.37;;;11.40;;
63653;SDS011;49809;47.418;19.080;2024-01-06T02:53:07;25.23;;;12.70;;
63653;SDS011;49809;47.418;19.080;2024-01-06T02:56:15;22.77;;;11.93;;
63653;SDS011;49809;47.418;19.080;2024-01-06T02:59:18;24.35;;;12.82;;
63653;SDS011;49809;47.418;19.080;2024-01-06T03:02:21;23.45;;;12.50;;
63653;SDS011;49809;47.418;19.080;2024-01-06T03:05:24;19.42;;;11.27;;
63653;SDS011;49809;47.418;19.080;2024-01-06T03:08:28;23.60;;;11.95;;
63653;SDS011;49809;47.418;19.080;2024-01-06T03:11:30;22.10;;;11.95;;
63653;SDS011;49809;47.418;19.080;2024-01-06T03:14:34;23.73;;;12.57;;
63653;SDS011;49809;47.418;19.080;2024-01-06T03:17:40;20.55;;;11.77;;
63653;SDS011;49809;47.418;19.080;2024-01-06T03:20:43;23.35;;;12.57;;
63653;SDS011;49809;47.418;19.080;2024-01-06T03:23:47;26.98;;;12.02;;
63653;SDS011;49809;47.418;19.080;2024-01-06T03:26:51;23.98;;;13.30;;
63653;SDS011;49809;47.418;19.080;2024-01-06T03:29:56;25.83;;;13.32;;
63653;SDS011;49809;47.418;19.080;2024-01-06T03:33:00;29.85;;;13.55;;
63653;SDS011;49809;47.418;19.080;2024-01-06T03:36:26;25.62;;;13.50;;
63653;SDS011;49809;47.418;19.080;2024-01-06T03:39:29;24.00;;;12.95;;
63653;SDS011;49809;47.418;19.080;2024-01-06T03:42:39;28.83;;;13.98;;
63653;SDS011;49809;47.418;19.080;2024-01-06T03:45:42;24.40;;;13.23;;
63653;SDS011;49809;47.418;19.080;2024-01-06T03:48:45;30.20;;;14.18;;
63653;SDS011;49809;47.418;19.080;2024-01-06T03:51:54;28.10;;;14.45;;
63653;SDS011;49809;47.418;19.080;2024-01-06T03:55:11;27.55;;;13.95;;
63653;SDS011;49809;47.418;19.080;2024-01-06T03:58:14;26.67;;;13.62;;
63653;SDS011;49809;47.418;19.080;2024-01-06T04:01:20;27.80;;;13.40;;
63653;SDS011;49809;47.418;19.080;2024-01-06T04:04:25;27.75;;;13.80;;
63653;SDS011;49809;47.418;19.080;2024-01-06T04:07:30;24.77;;;12.55;;
63653;SDS011;49809;47.418;19.080;2024-01-06T04:10:33;25.95;;;13.52;;
63653;SDS011;49809;47.418;19.080;2024-01-06T04:13:38;26.55;;;12.88;;
63653;SDS011;49809;47.418;19.080;2024-01-06T04:16:44;25.85;;;13.10;;
63653;SDS011;49809;47.418;19.080;2024-01-06T04:19:49;24.65;;;13.70;;
63653;SDS011;49809;47.418;19.080;2024-01-06T04:22:53;28.27;;;14.10;;
63653;SDS011;49809;47.418;19.080;2024-01-06T04:25:56;24.95;;;13.20;;
63653;SDS011;49809;47.418;19.080;2024-01-06T04:29:03;26.15;;;13.38;;
63653;SDS011;49809;47.418;19.080;2024-01-06T04:32:11;24.53;;;13.20;;
63653;SDS011;49809;47.418;19.080;2024-01-06T04:35:20;26.92;;;13.35;;
63653;SDS011;49809;47.418;19.080;2024-01-06T04:38:24;25.88;;;13.90;;
63653;SDS011;49809;47.418;19.080;2024-01-06T04:41:28;26.70;;;14.45;;
63653;SDS011;49809;47.418;19.080;2024-01-06T04:44:31;24.83;;;12.93;;
63653;SDS011;49809;47.418;19.080;2024-01-06T04:47:37;27.00;;;13.27;;
63653;SDS011;49809;47.418;19.080;2024-01-06T04:50:41;22.67;;;13.40;;
63653;SDS011;49809;47.418;19.080;2024-01-06T04:53:47;24.20;;;13.62;;
63653;SDS011;49809;47.418;19.080;2024-01-06T04:56:55;25.55;;;13.70;;
63653;SDS011;49809;47.418;19.080;2024-01-06T04:59:59;23.98;;;14.00;;
63653;SDS011;49809;47.418;19.080;2024-01-06T05:06:13;26.80;;;13.48;;
63653;SDS011;49809;47.418;19.080;2024-01-06T05:09:16;25.20;;;13.10;;
63653;SDS011;49809;47.418;19.080;2024-01-06T05:12:22;25.33;;;13.75;;
63653;SDS011;49809;47.418;19.080;2024-01-06T05:18:51;21.87;;;12.18;;
63653;SDS011;49809;47.418;19.080;2024-01-06T05:21:54;24.42;;;13.07;;
63653;SDS011;49809;47.418;19.080;2024-01-06T05:24:59;26.12;;;13.38;;
63653;SDS011;49809;47.418;19.080;2024-01-06T05:28:02;28.48;;;13.00;;
63653;SDS011;49809;47.418;19.080;2024-01-06T05:31:07;25.98;;;13.32;;
63653;SDS011;49809;47.418;19.080;2024-01-06T05:34:10;25.08;;;13.32;;
63653;SDS011;49809;47.418;19.080;2024-01-06T05:37:17;24.45;;;12.75;;
63653;SDS011;49809;47.418;19.080;2024-01-06T05:43:27;22.65;;;11.77;;
63653;SDS011;49809;47.418;19.080;2024-01-06T05:46:50;23.30;;;12.48;;
63653;SDS011;49809;47.418;19.080;2024-01-06T05:49:54;22.62;;;12.57;;
63653;SDS011;49809;47.418;19.080;2024-01-06T05:53:21;26.92;;;12.65;;
63653;SDS011;49809;47.418;19.080;2024-01-06T05:56:25;24.17;;;12.95;;
63653;SDS011;49809;47.418;19.080;2024-01-06T05:59:33;24.30;;;13.10;;
63653;SDS011;49809;47.418;19.080;2024-01-06T06:05:42;24.92;;;13.27;;
63653;SDS011;49809;47.418;19.080;2024-01-06T06:08:49;25.23;;;13.32;;
63653;SDS011;49809;47.418;19.080;2024-01-06T06:11:58;23.48;;;13.13;;
63653;SDS011;49809;47.418;19.080;2024-01-06T06:15:04;26.87;;;13.57;;
63653;SDS011;49809;47.418;19.080;2024-01-06T06:18:09;24.77;;;13.25;;
63653;SDS011;49809;47.418;19.080;2024-01-06T06:21:12;22.60;;;12.82;;
63653;SDS011;49809;47.418;19.080;2024-01-06T06:24:16;24.77;;;13.68;;
63653;SDS011;49809;47.418;19.080;2024-01-06T06:27:19;23.87;;;13.62;;
63653;SDS011;49809;47.418;19.080;2024-01-06T06:30:23;24.75;;;12.70;;
63653;SDS011;49809;47.418;19.080;2024-01-06T06:33:27;24.65;;;12.95;;
63653;SDS011;49809;47.418;19.080;2024-01-06T06:36:30;24.77;;;13.07;;
63653;SDS011;49809;47.418;19.080;2024-01-06T06:39:34;25.48;;;13.43;;
63653;SDS011;49809;47.418;19.080;2024-01-06T06:42:40;26.67;;;12.82;;
63653;SDS011;49809;47.418;19.080;2024-01-06T06:45:43;27.45;;;14.57;;
63653;SDS011;49809;47.418;19.080;2024-01-06T06:48:55;24.27;;;13.27;;
63653;SDS011;49809;47.418;19.080;2024-01-06T06:51:58;20.83;;;12.48;;
63653;SDS011;49809;47.418;19.080;2024-01-06T06:55:01;22.27;;;11.68;;
63653;SDS011;49809;47.418;19.080;2024-01-06T06:58:07;24.10;;;13.30;;
63653;SDS011;49809;47.418;19.080;2024-01-06T07:01:16;24.70;;;13.52;;
63653;SDS011;49809;47.418;19.080;2024-01-06T07:04:19;23.25;;;12.70;;
63653;SDS011;49809;47.418;19.080;2024-01-06T07:07:26;27.17;;;13.40;;
63653;SDS011;49809;47.418;19.080;2024-01-06T07:10:30;25.20;;;13.02;;
63653;SDS011;49809;47.418;19.080;2024-01-06T07:13:33;24.15;;;12.52;;
63653;SDS011;49809;47.418;19.080;2024-01-06T07:16:36;22.83;;;12.30;;
63653;SDS011;49809;47.418;19.080;2024-01-06T07:19:42;22.83;;;13.20;;
63653;SDS011;49809;47.418;19.080;2024-01-06T07:22:46;23.10;;;12.93;;
63653;SDS011;49809;47.418;19.080;2024-01-06T07:26:09;23.38;;;12.73;;
63653;SDS011;49809;47.418;19.080;2024-01-06T07:29:20;24.05;;;13.55;;
63653;SDS011;49809;47.418;19.080;2024-01-06T07:32:24;24.67;;;13.05;;
63653;SDS011;49809;47.418;19.080;2024-01-06T07:35:31;23.45;;;12.82;;
63653;SDS011;49809;47.418;19.080;2024-01-06T07:38:35;24.02;;;12.10;;
63653;SDS011;49809;47.418;19.080;2024-01-06T07:41:39;21.92;;;12.10;;
63653;SDS011;49809;47.418;19.080;2024-01-06T07:44:46;26.92;;;11.60;;
63653;SDS011;49809;47.418;19.080;2024-01-06T07:47:50;21.75;;;12.32;;
63653;SDS011;49809;47.418;19.080;2024-01-06T07:55:26;24.20;;;11.70;;
63653;SDS011;49809;47.418;19.080;2024-01-06T07:58:31;21.37;;;12.23;;
63653;SDS011;49809;47.418;19.080;2024-01-06T08:01:55;21.52;;;11.77;;
63653;SDS011;49809;47.418;19.080;2024-01-06T08:04:59;23.15;;;11.70;;
63653;SDS011;49809;47.418;19.080;2024-01-06T08:08:03;22.73;;;11.50;;
63653;SDS011;49809;47.418;19.080;2024-01-06T08:11:07;20.98;;;11.25;;
63653;SDS011;49809;47.418;19.080;2024-01-06T08:14:11;20.80;;;11.80;;
63653;SDS011;49809;47.418;19.080;2024-01-06T08:17:51;21.48;;;11.20;;
63653;SDS011;49809;47.418;19.080;2024-01-06T08:20:59;20.73;;;11.27;;
63653;SDS011;49809;47.418;19.080;2024-01-06T08:24:03;24.58;;;11.48;;
63653;SDS011;49809;47.418;19.080;2024-01-06T08:27:07;22.27;;;11.35;;
63653;SDS011;49809;47.418;19.080;2024-01-06T08:30:31;20.00;;;10.90;;
63653;SDS011;49809;47.418;19.080;2024-01-06T08:33:37;21.52;;;11.35;;
63653;SDS011;49809;47.418;19.080;2024-01-06T08:37:13;18.35;;;10.57;;
63653;SDS011;49809;47.418;19.080;2024-01-06T08:40:49;22.30;;;11.02;;
63653;SDS011;49809;47.418;19.080;2024-01-06T08:43:57;20.58;;;11.25;;
63653;SDS011;49809;47.418;19.080;2024-01-06T08:47:02;20.52;;;11.10;;
63653;SDS011;49809;47.418;19.080;2024-01-06T08:50:28;17.12;;;10.40;;
63653;SDS011;49809;47.418;19.080;2024-01-06T08:53:33;18.50;;;10.55;;
63653;SDS011;49809;47.418;19.080;2024-01-06T08:56:37;21.37;;;11.52;;
63653;SDS011;49809;47.418;19.080;2024-01-06T09:00:05;21.60;;;11.15;;
63653;SDS011;49809;47.418;19.080;2024-01-06T09:03:10;20.60;;;10.40;;
63653;SDS011;49809;47.418;19.080;2024-01-06T09:06:17;21.42;;;10.73;;
63653;SDS011;49809;47.418;19.080;2024-01-06T09:09:21;20.50;;;11.52;;
63653;SDS011;49809;47.418;19.080;2024-01-06T09:12:25;19.73;;;10.40;;
63653;SDS011;49809;47.418;19.080;2024-01-06T09:15:29;19.42;;;10.88;;
63653;SDS011;49809;47.418;19.080;2024-01-06T09:18:32;20.27;;;10.95;;
63653;SDS011;49809;47.418;19.080;2024-01-06T09:21:39;17.65;;;9.40;;
63653;SDS011;49809;47.418;19.080;2024-01-06T09:24:42;18.45;;;9.85;;
63653;SDS011;49809;47.418;19.080;2024-01-06T09:27:46;20.52;;;10.25;;
63653;SDS011;49809;47.418;19.080;2024-01-06T09:30:53;18.12;;;10.20;;
63653;SDS011;49809;47.418;19.080;2024-01-06T09:34:01;16.23;;;9.40;;
63653;SDS011;49809;47.418;19.080;2024-01-06T09:37:27;18.23;;;10.45;;
63653;SDS011;49809;47.418;19.080;2024-01-06T09:40:32;22.15;;;9.90;;
63653;SDS011;49809;47.418;19.080;2024-01-06T09:43:38;20.02;;;9.73;;
63653;SDS011;49809;47.418;19.080;2024-01-06T09:46:42;16.67;;;9.45;;
63653;SDS011;49809;47.418;19.080;2024-01-06T09:49:48;18.50;;;9.57;;
63653;SDS011;49809;47.418;19.080;2024-01-06T09:52:52;17.20;;;9.68;;
63653;SDS011;49809;47.418;19.080;2024-01-06T09:55:59;19.73;;;9.20;;
63653;SDS011;49809;47.418;19.080;2024-01-06T09:59:05;18.70;;;10.18;;
63653;SDS011;49809;47.418;19.080;2024-01-06T10:02:08;17.20;;;10.07;;
63653;SDS011;49809;47.418;19.080;2024-01-06T10:05:45;23.52;;;10.35;;
63653;SDS011;49809;47.418;19.080;2024-01-06T10:09:27;18.20;;;10.18;;
63653;SDS011;49809;47.418;19.080;2024-01-06T10:12:31;19.50;;;10.23;;
63653;SDS011;49809;47.418;19.080;2024-01-06T10:15:40;17.75;;;10.73;;
63653;SDS011;49809;47.418;19.080;2024-01-06T10:18:44;22.73;;;10.98;;
63653;SDS011;49809;47.418;19.080;2024-01-06T10:21:50;20.05;;;10.43;;
63653;SDS011;49809;47.418;19.080;2024-01-06T10:24:54;20.33;;;11.38;;
63653;SDS011;49809;47.418;19.080;2024-01-06T10:28:00;19.55;;;11.30;;
63653;SDS011;49809;47.418;19.080;2024-01-06T10:31:32;19.90;;;10.82;;
63653;SDS011;49809;47.418;19.080;2024-01-06T10:34:36;22.02;;;10.35;;
63653;SDS011;49809;47.418;19.080;2024-01-06T10:37:42;19.23;;;10.38;;
63653;SDS011;49809;47.418;19.080;2024-01-06T10:41:16;17.55;;;9.95;;
63653;SDS011;49809;47.418;19.080;2024-01-06T10:44:22;19.62;;;10.40;;
63653;SDS011;49809;47.418;19.080;2024-01-06T10:47:30;18.58;;;10.02;;
63653;SDS011;49809;47.418;19.080;2024-01-06T10:50:57;19.85;;;10.25;;
63653;SDS011;49809;47.418;19.080;2024-01-06T10:54:05;19.80;;;9.60;;
63653;SDS011;49809;47.418;19.080;2024-01-06T10:57:12;20.08;;;10.55;;
63653;SDS011;49809;47.418;19.080;2024-01-06T11:00:48;17.20;;;9.93;;
63653;SDS011;49809;47.418;19.080;2024-01-06T11:03:52;19.10;;;10.05;;
63653;SDS011;49809;47.418;19.080;2024-01-06T11:06:58;17.08;;;9.80;;
63653;SDS011;49809;47.418;19.080;2024-01-06T11:10:26;18.55;;;10.50;;
63653;SDS011;49809;47.418;19.080;2024-01-06T11:13:39;22.35;;;10.38;;
63653;SDS011;49809;47.418;19.080;2024-01-06T11:16:54;17.73;;;10.25;;
63653;SDS011;49809;47.418;19.080;2024-01-06T11:20:21;17.25;;;10.30;;
63653;SDS011;49809;47.418;19.080;2024-01-06T11:23:26;23.77;;;13.60;;
63653;SDS011;49809;47.418;19.080;2024-01-06T11:26:53;25.17;;;12.88;;
63653;SDS011;49809;47.418;19.080;2024-01-06T11:30:04;23.08;;;14.65;;
63653;SDS011;49809;47.418;19.080;2024-01-06T11:33:43;25.55;;;13.48;;
63653;SDS011;49809;47.418;19.080;2024-01-06T11:37:10;23.43;;;12.37;;
63653;SDS011;49809;47.418;19.080;2024-01-06T11:43:33;18.50;;;11.43;;
63653;SDS011;49809;47.418;19.080;2024-01-06T11:47:25;20.45;;;11.38;;
63653;SDS011;49809;47.418;19.080;2024-01-06T11:50:49;21.40;;;11.35;;
63653;SDS011;49809;47.418;19.080;2024-01-06T11:54:15;22.30;;;10.82;;
63653;SDS011;49809;47.418;19.080;2024-01-06T11:57:20;21.27;;;11.90;;
63653;SDS011;49809;47.418;19.080;2024-01-06T12:00:44;20.88;;;12.30;;
63653;SDS011;49809;47.418;19.080;2024-01-06T12:04:25;19.42;;;11.50;;
63653;SDS011;49809;47.418;19.080;2024-01-06T12:08:08;21.45;;;11.25;;
63653;SDS011;49809;47.418;19.080;2024-01-06T12:12:19;21.25;;;12.40;;
63653;SDS011;49809;47.418;19.080;2024-01-06T12:15:59;23.58;;;12.90;;
63653;SDS011;49809;47.418;19.080;2024-01-06T12:19:46;23.87;;;11.30;;
63653;SDS011;49809;47.418;19.080;2024-01-06T12:23:29;24.20;;;13.18;;
63653;SDS011;49809;47.418;19.080;2024-01-06T12:26:32;19.77;;;11.55;;
63653;SDS011;49809;47.418;19.080;2024-01-06T12:29:40;19.52;;;10.77;;
63653;SDS011;49809;47.418;19.080;2024-01-06T12:33:10;19.25;;;11.43;;
63653;SDS011;49809;47.418;19.080;2024-01-06T12:36:39;23.08;;;11.68;;
63653;SDS011;49809;47.418;19.080;2024-01-06T12:40:46;18.30;;;10.45;;
63653;SDS011;49809;47.418;19.080;2024-01-06T12:44:29;19.35;;;10.63;;
63653;SDS011;49809;47.418;19.080;2024-01-06T12:48:12;18.90;;;10.43;;
63653;SDS011;49809;47.418;19.080;2024-01-06T12:51:56;23.10;;;11.70;;
63653;SDS011;49809;47.418;19.080;2024-01-06T12:55:22;19.60;;;10.75;;
63653;SDS011;49809;47.418;19.080;2024-01-06T12:59:09;21.90;;;11.73;;
63653;SDS011;49809;47.418;19.080;2024-01-06T13:02:50;19.75;;;11.93;;
63653;SDS011;49809;47.418;19.080;2024-01-06T13:06:16;20.83;;;11.63;;
63653;SDS011;49809;47.418;19.080;2024-01-06T13:09:48;22.00;;;11.25;;
63653;SDS011;49809;47.418;19.080;2024-01-06T13:13:15;18.92;;;10.77;;
63653;SDS011;49809;47.418;19.080;2024-01-06T13:17:04;19.20;;;11.50;;
63653;SDS011;49809;47.418;19.080;2024-01-06T13:20:28;21.35;;;11.52;;
63653;SDS011;49809;47.418;19.080;2024-01-06T13:24:04;22.15;;;12.32;;
63653;SDS011;49809;47.418;19.080;2024-01-06T13:36:24;19.48;;;12.23;;
63653;SDS011;49809;47.418;19.080;2024-01-06T13:39:48;30.52;;;12.88;;
63653;SDS011;49809;47.418;19.080;2024-01-06T13:43:13;23.65;;;12.07;;
63653;SDS011;49809;47.418;19.080;2024-01-06T13:46:40;25.52;;;14.15;;
63653;SDS011;49809;47.418;19.080;2024-01-06T13:50:16;22.83;;;12.43;;
63653;SDS011;49809;47.418;19.080;2024-01-06T13:54:00;17.58;;;10.27;;
63653;SDS011;49809;47.418;19.080;2024-01-06T13:57:09;18.70;;;10.65;;
63653;SDS011;49809;47.418;19.080;2024-01-06T14:00:54;22.98;;;11.95;;
63653;SDS011;49809;47.418;19.080;2024-01-06T14:13:24;20.15;;;10.90;;
63653;SDS011;49809;47.418;19.080;2024-01-06T14:16:59;19.40;;;10.95;;
63653;SDS011;49809;47.418;19.080;2024-01-06T14:20:46;21.55;;;11.43;;
63653;SDS011;49809;47.418;19.080;2024-01-06T14:28:17;24.58;;;12.63;;
63653;SDS011;49809;47.418;19.080;2024-01-06T14:32:11;29.65;;;15.20;;
63653;SDS011;49809;47.418;19.080;2024-01-06T14:35:52;24.17;;;13.82;;
63653;SDS011;49809;47.418;19.080;2024-01-06T14:39:38;24.35;;;13.35;;
63653;SDS011;49809;47.418;19.080;2024-01-06T14:43:08;27.58;;;15.43;;
63653;SDS011;49809;47.418;19.080;2024-01-06T14:46:48;27.02;;;15.43;;
63653;SDS011;49809;47.418;19.080;2024-01-06T14:50:54;25.85;;;14.82;;
63653;SDS011;49809;47.418;19.080;2024-01-06T14:54:24;36.47;;;16.02;;
63653;SDS011;49809;47.418;19.080;2024-01-06T14:58:12;24.87;;;14.70;;
63653;SDS011;49809;47.418;19.080;2024-01-06T15:02:17;24.77;;;13.88;;
63653;SDS011;49809;47.418;19.080;2024-01-06T15:05:54;23.95;;;13.43;;
63653;SDS011;49809;47.418;19.080;2024-01-06T15:10:02;25.92;;;13.43;;
63653;SDS011;49809;47.418;19.080;2024-01-06T15:13:46;27.55;;;13.73;;
63653;SDS011;49809;47.418;19.080;2024-01-06T15:17:24;24.67;;;13.25;;
63653;SDS011;49809;47.418;19.080;2024-01-06T15:21:28;26.58;;;14.32;;
63653;SDS011;49809;47.418;19.080;2024-01-06T15:25:15;25.98;;;13.57;;
63653;SDS011;49809;47.418;19.080;2024-01-06T15:36:54;22.33;;;12.18;;
63653;SDS011;49809;47.418;19.080;2024-01-06T15:40:32;25.77;;;14.63;;
63653;SDS011;49809;47.418;19.080;2024-01-06T15:52:38;26.55;;;15.48;;
63653;SDS011;49809;47.418;19.080;2024-01-06T15:55:43;26.12;;;12.80;;
63653;SDS011;49809;47.418;19.080;2024-01-06T15:59:19;25.00;;;13.93;;
63653;SDS011;49809;47.418;19.080;2024-01-06T16:02:42;31.67;;;15.82;;
63653;SDS011;49809;47.418;19.080;2024-01-06T16:05:46;29.30;;;14.68;;
63653;SDS011;49809;47.418;19.080;2024-01-06T16:08:50;29.25;;;16.12;;
63653;SDS011;49809;47.418;19.080;2024-01-06T16:11:53;42.78;;;20.17;;
63653;SDS011;49809;47.418;19.080;2024-01-06T16:15:00;38.85;;;21.65;;
63653;SDS011;49809;47.418;19.080;2024-01-06T16:18:13;29.08;;;16.67;;
63653;SDS011;49809;47.418;19.080;2024-01-06T16:21:24;27.30;;;16.62;;
63653;SDS011;49809;47.418;19.080;2024-01-06T16:24:29;51.53;;;25.98;;
63653;SDS011;49809;47.418;19.080;2024-01-06T16:27:34;25.48;;;15.93;;
63653;SDS011;49809;47.418;19.080;2024-01-06T16:30:40;27.87;;;15.68;;
63653;SDS011;49809;47.418;19.080;2024-01-06T16:34:15;25.95;;;13.90;;
63653;SDS011;49809;47.418;19.080;2024-01-06T16:37:23;32.28;;;17.70;;
63653;SDS011;49809;47.418;19.080;2024-01-06T16:40:32;25.85;;;13.95;;
63653;SDS011;49809;47.418;19.080;2024-01-06T16:43:39;27.50;;;16.02;;
63653;SDS011;49809;47.418;19.080;2024-01-06T16:46:43;32.58;;;19.08;;
63653;SDS011;49809;47.418;19.080;2024-01-06T16:49:49;28.93;;;17.10;;
63653;SDS011;49809;47.418;19.080;2024-01-06T16:52:59;28.20;;;14.93;;
63653;SDS011;49809;47.418;19.080;2024-01-06T16:56:08;29.30;;;14.65;;
63653;SDS011;49809;47.418;19.080;2024-01-06T16:59:14;28.00;;;15.10;;
63653;SDS011;49809;47.418;19.080;2024-01-06T17:02:18;29.35;;;16.30;;
63653;SDS011;49809;47.418;19.080;2024-01-06T17:05:22;33.20;;;17.48;;
63653;SDS011;49809;47.418;19.080;2024-01-06T17:08:27;31.60;;;16.17;;
63653;SDS011;49809;47.418;19.080;2024-01-06T17:11:30;33.35;;;16.70;;
63653;SDS011;49809;47.418;19.080;2024-01-06T17:14:43;24.00;;;13.45;;
63653;SDS011;49809;47.418;19.080;2024-01-06T17:17:49;26.30;;;15.07;;
63653;SDS011;49809;47.418;19.080;2024-01-06T17:21:00;31.45;;;15.80;;
63653;SDS011;49809;47.418;19.080;2024-01-06T17:24:14;31.30;;;15.88;;
63653;SDS011;49809;47.418;19.080;2024-01-06T17:27:24;24.00;;;13.45;;
63653;SDS011;49809;47.418;19.080;2024-01-06T17:30:33;27.62;;;13.98;;
63653;SDS011;49809;47.418;19.080;2024-01-06T17:38:13;28.98;;;14.43;;
63653;SDS011;49809;47.418;19.080;2024-01-06T17:41:17;25.88;;;14.23;;
63653;SDS011;49809;47.418;19.080;2024-01-06T17:44:42;29.98;;;15.02;;
63653;SDS011;49809;47.418;19.080;2024-01-06T17:48:21;28.17;;;14.75;;
63653;SDS011;49809;47.418;19.080;2024-01-06T17:51:30;32.83;;;14.05;;
63653;SDS011;49809;47.418;19.080;2024-01-06T17:54:34;25.33;;;14.38;;
63653;SDS011;49809;47.418;19.080;2024-01-06T17:57:41;29.25;;;14.87;;
63653;SDS011;49809;47.418;19.080;2024-01-06T18:00:45;30.33;;;15.57;;
63653;SDS011;49809;47.418;19.080;2024-01-06T18:04:10;27.20;;;14.43;;
63653;SDS011;49809;47.418;19.080;2024-01-06T18:07:15;29.73;;;16.92;;
63653;SDS011;49809;47.418;19.080;2024-01-06T18:10:22;30.58;;;17.27;;
63653;SDS011;49809;47.418;19.080;2024-01-06T18:13:38;27.30;;;16.17;;
63653;SDS011;49809;47.418;19.080;2024-01-06T18:16:42;30.70;;;15.18;;
63653;SDS011;49809;47.418;19.080;2024-01-06T18:20:12;32.83;;;17.83;;
63653;SDS011;49809;47.418;19.080;2024-01-06T18:23:24;30.30;;;16.70;;
63653;SDS011;49809;47.418;19.080;2024-01-06T18:26:30;26.50;;;15.55;;
63653;SDS011;49809;47.418;19.080;2024-01-06T18:29:39;29.75;;;14.73;;
63653;SDS011;49809;47.418;19.080;2024-01-06T18:32:45;56.20;;;27.08;;
63653;SDS011;49809;47.418;19.080;2024-01-06T18:35:53;35.03;;;20.42;;
63653;SDS011;49809;47.418;19.080;2024-01-06T18:38:59;27.83;;;14.87;;
63653;SDS011;49809;47.418;19.080;2024-01-06T18:50:40;32.40;;;17.65;;
63653;SDS011;49809;47.418;19.080;2024-01-06T18:54:11;34.92;;;16.85;;
63653;SDS011;49809;47.418;19.080;2024-01-06T18:57:44;37.15;;;19.10;;
63653;SDS011;49809;47.418;19.080;2024-01-06T19:00:48;48.85;;;26.08;;
63653;SDS011;49809;47.418;19.080;2024-01-06T19:03:52;30.77;;;17.73;;
63653;SDS011;49809;47.418;19.080;2024-01-06T19:07:17;23.10;;;13.15;;
63653;SDS011;49809;47.418;19.080;2024-01-06T19:10:23;28.45;;;17.65;;
63653;SDS011;49809;47.418;19.080;2024-01-06T19:13:29;24.67;;;13.95;;
63653;SDS011;49809;47.418;19.080;2024-01-06T19:16:42;24.27;;;13.23;;
63653;SDS011;49809;47.418;19.080;2024-01-06T19:20:40;24.87;;;14.25;;
63653;SDS011;49809;47.418;19.080;2024-01-06T19:23:46;26.27;;;13.73;;
63653;SDS011;49809;47.418;19.080;2024-01-06T19:26:59;22.62;;;13.32;;
63653;SDS011;49809;47.418;19.080;2024-01-06T19:30:24;23.00;;;14.20;;
63653;SDS011;49809;47.418;19.080;2024-01-06T19:34:08;26.45;;;15.07;;
63653;SDS011;49809;47.418;19.080;2024-01-06T19:37:14;24.95;;;14.52;;
63653;SDS011;49809;47.418;19.080;2024-01-06T19:40:17;27.35;;;15.63;;
63653;SDS011;49809;47.418;19.080;2024-01-06T19:43:21;25.83;;;15.23;;
63653;SDS011;49809;47.418;19.080;2024-01-06T19:46:32;27.10;;;15.13;;
63653;SDS011;49809;47.418;19.080;2024-01-06T19:49:37;31.23;;;17.50;;
63653;SDS011;49809;47.418;19.080;2024-01-06T19:52:43;34.10;;;21.92;;